sensor_id;sensor_type;location;lat;lon;timestamp;P1;durP1;ratioP1;P2;durP2;ratioP2
7306;SDS011;3694;48.732;9.248;2023-03-01T00:01:04;16.67;;;14.27;;
7306;SDS011;3694;48.732;9.248;2023-03-01T00:03:31;19.03;;;15.60;;
7306;SDS011;3694;48.732;9.248;2023-03-01T00:05:57;41.63;;;27.93;;
7306;SDS011;3694;48.732;9.248;2023-03-01T00:08:24;23.03;;;16.77;;
7306;SDS011;3694;48.732;9.248;2023-03-01T00:10:59;20.17;;;15.90;;
7306;SDS011;3694;48.732;9.248;2023-03-01T00:13:26;19.60;;;15.60;;
7306;SDS011;3694;48.732;9.248;2023-03-01T00:15:51;22.53;;;18.53;;
7306;SDS011;3694;48.732;9.248;2023-03-01T00:18:16;20.20;;;16.17;;
7306;SDS011;3694;48.732;9.248;2023-03-01T00:20:48;20.93;;;16.27;;
7306;SDS011;3694;48.732;9.248;2023-03-01T00:23:18;20.23;;;16.30;;
7306;SDS011;3694;48.732;9.248;2023-03-01T00:25:44;22.50;;;17.57;;
7306;SDS011;3694;48.732;9.248;2023-03-01T00:28:09;22.57;;;18.77;;
7306;SDS011;3694;48.732;9.248;2023-03-01T00:30:35;19.17;;;15.87;;
7306;SDS011;3694;48.732;9.248;2023-03-01T00:33:00;18.33;;;15.53;;
7306;SDS011;3694;48.732;9.248;2023-03-01T00:35:26;21.10;;;16.50;;
7306;SDS011;3694;48.732;9.248;2023-03-01T00:37:51;20.73;;;16.33;;
7306;SDS011;3694;48.732;9.248;2023-03-01T00:40:23;20.17;;;16.47;;
7306;SDS011;3694;48.732;9.248;2023-03-01T00:42:49;19.17;;;15.63;;
7306;SDS011;3694;48.732;9.248;2023-03-01T00:45:14;20.90;;;16.77;;
7306;SDS011;3694;48.732;9.248;2023-03-01T00:47:40;23.53;;;17.90;;
7306;SDS011;3694;48.732;9.248;2023-03-01T00:50:06;22.77;;;17.63;;
7306;SDS011;3694;48.732;9.248;2023-03-01T00:52:32;25.97;;;18.33;;
7306;SDS011;3694;48.732;9.248;2023-03-01T00:54:57;23.17;;;17.40;;
7306;SDS011;3694;48.732;9.248;2023-03-01T00:57:23;23.27;;;18.10;;
7306;SDS011;3694;48.732;9.248;2023-03-01T00:59:48;22.07;;;17.43;;
7306;SDS011;3694;48.732;9.248;2023-03-01T01:02:14;23.30;;;18.60;;
7306;SDS011;3694;48.732;9.248;2023-03-01T01:04:40;23.23;;;17.50;;
7306;SDS011;3694;48.732;9.248;2023-03-01T01:07:06;23.07;;;17.53;;
7306;SDS011;3694;48.732;9.248;2023-03-01T01:09:31;22.30;;;17.37;;
7306;SDS011;3694;48.732;9.248;2023-03-01T01:11:57;22.67;;;17.27;;
7306;SDS011;3694;48.732;9.248;2023-03-01T01:14:22;23.07;;;18.20;;
7306;SDS011;3694;48.732;9.248;2023-03-01T01:16:48;23.83;;;17.60;;
7306;SDS011;3694;48.732;9.248;2023-03-01T01:19:14;23.53;;;18.00;;
7306;SDS011;3694;48.732;9.248;2023-03-01T01:21:40;23.37;;;17.37;;
7306;SDS011;3694;48.732;9.248;2023-03-01T01:24:08;22.63;;;18.50;;
7306;SDS011;3694;48.732;9.248;2023-03-01T01:26:33;20.13;;;14.83;;
7306;SDS011;3694;48.732;9.248;2023-03-01T01:29:00;21.27;;;16.70;;
7306;SDS011;3694;48.732;9.248;2023-03-01T01:31:27;19.77;;;16.07;;
7306;SDS011;3694;48.732;9.248;2023-03-01T01:33:55;21.80;;;16.00;;
7306;SDS011;3694;48.732;9.248;2023-03-01T01:36:21;21.70;;;16.40;;
7306;SDS011;3694;48.732;9.248;2023-03-01T01:38:47;22.73;;;16.43;;
7306;SDS011;3694;48.732;9.248;2023-03-01T01:41:14;23.10;;;16.70;;
7306;SDS011;3694;48.732;9.248;2023-03-01T01:43:43;20.60;;;15.50;;
7306;SDS011;3694;48.732;9.248;2023-03-01T01:46:32;19.00;;;15.40;;
7306;SDS011;3694;48.732;9.248;2023-03-01T01:49:20;19.80;;;14.87;;
7306;SDS011;3694;48.732;9.248;2023-03-01T01:51:51;16.27;;;13.23;;
7306;SDS011;3694;48.732;9.248;2023-03-01T01:54:25;20.30;;;16.00;;
7306;SDS011;3694;48.732;9.248;2023-03-01T01:57:00;19.77;;;14.33;;
7306;SDS011;3694;48.732;9.248;2023-03-01T01:59:28;17.23;;;12.77;;
7306;SDS011;3694;48.732;9.248;2023-03-01T02:01:56;19.00;;;13.60;;
7306;SDS011;3694;48.732;9.248;2023-03-01T02:04:26;19.40;;;15.17;;
7306;SDS011;3694;48.732;9.248;2023-03-01T02:06:54;20.57;;;14.50;;
7306;SDS011;3694;48.732;9.248;2023-03-01T02:09:26;20.40;;;15.63;;
7306;SDS011;3694;48.732;9.248;2023-03-01T02:11:52;20.67;;;15.37;;
7306;SDS011;3694;48.732;9.248;2023-03-01T02:14:19;21.00;;;16.23;;
7306;SDS011;3694;48.732;9.248;2023-03-01T02:16:44;16.37;;;12.53;;
7306;SDS011;3694;48.732;9.248;2023-03-01T02:19:13;18.20;;;13.30;;
7306;SDS011;3694;48.732;9.248;2023-03-01T02:21:54;19.93;;;14.97;;
7306;SDS011;3694;48.732;9.248;2023-03-01T02:24:33;21.13;;;15.53;;
7306;SDS011;3694;48.732;9.248;2023-03-01T02:27:08;21.83;;;16.70;;
7306;SDS011;3694;48.732;9.248;2023-03-01T02:29:35;17.57;;;13.50;;
7306;SDS011;3694;48.732;9.248;2023-03-01T02:32:01;24.30;;;17.63;;
7306;SDS011;3694;48.732;9.248;2023-03-01T02:34:28;22.57;;;16.50;;
7306;SDS011;3694;48.732;9.248;2023-03-01T02:37:05;23.63;;;15.97;;
7306;SDS011;3694;48.732;9.248;2023-03-01T02:39:45;19.77;;;16.93;;
7306;SDS011;3694;48.732;9.248;2023-03-01T02:42:14;18.30;;;16.10;;
7306;SDS011;3694;48.732;9.248;2023-03-01T02:44:48;19.97;;;14.90;;
7306;SDS011;3694;48.732;9.248;2023-03-01T02:47:14;20.70;;;16.57;;
7306;SDS011;3694;48.732;9.248;2023-03-01T02:49:40;22.63;;;16.87;;
7306;SDS011;3694;48.732;9.248;2023-03-01T02:55:08;21.00;;;14.57;;
7306;SDS011;3694;48.732;9.248;2023-03-01T02:57:39;21.57;;;17.00;;
7306;SDS011;3694;48.732;9.248;2023-03-01T03:00:09;16.97;;;13.33;;
7306;SDS011;3694;48.732;9.248;2023-03-01T03:02:44;20.57;;;16.33;;
7306;SDS011;3694;48.732;9.248;2023-03-01T03:05:21;22.57;;;17.57;;
7306;SDS011;3694;48.732;9.248;2023-03-01T03:07:48;17.57;;;13.00;;
7306;SDS011;3694;48.732;9.248;2023-03-01T03:10:17;20.60;;;16.73;;
7306;SDS011;3694;48.732;9.248;2023-03-01T03:12:48;16.30;;;12.87;;
7306;SDS011;3694;48.732;9.248;2023-03-01T03:15:19;21.83;;;15.40;;
7306;SDS011;3694;48.732;9.248;2023-03-01T03:17:45;22.30;;;16.83;;
7306;SDS011;3694;48.732;9.248;2023-03-01T03:20:11;22.47;;;17.00;;
7306;SDS011;3694;48.732;9.248;2023-03-01T03:22:45;23.40;;;17.53;;
7306;SDS011;3694;48.732;9.248;2023-03-01T03:25:12;22.80;;;16.33;;
7306;SDS011;3694;48.732;9.248;2023-03-01T03:27:39;21.90;;;16.03;;
7306;SDS011;3694;48.732;9.248;2023-03-01T03:30:06;24.63;;;19.20;;
7306;SDS011;3694;48.732;9.248;2023-03-01T03:32:40;20.97;;;14.93;;
7306;SDS011;3694;48.732;9.248;2023-03-01T03:35:08;18.70;;;15.47;;
7306;SDS011;3694;48.732;9.248;2023-03-01T03:37:36;21.53;;;17.13;;
7306;SDS011;3694;48.732;9.248;2023-03-01T03:40:24;21.93;;;17.47;;
7306;SDS011;3694;48.732;9.248;2023-03-01T03:42:52;21.03;;;16.20;;
7306;SDS011;3694;48.732;9.248;2023-03-01T03:45:17;16.47;;;10.77;;
7306;SDS011;3694;48.732;9.248;2023-03-01T03:47:43;22.70;;;16.33;;
7306;SDS011;3694;48.732;9.248;2023-03-01T03:50:10;23.83;;;17.70;;
7306;SDS011;3694;48.732;9.248;2023-03-01T03:52:37;23.37;;;17.53;;
7306;SDS011;3694;48.732;9.248;2023-03-01T03:55:03;25.83;;;20.10;;
7306;SDS011;3694;48.732;9.248;2023-03-01T03:57:40;31.30;;;21.60;;
7306;SDS011;3694;48.732;9.248;2023-03-01T04:00:07;29.87;;;20.40;;
7306;SDS011;3694;48.732;9.248;2023-03-01T04:02:44;26.63;;;19.50;;
7306;SDS011;3694;48.732;9.248;2023-03-01T04:05:11;27.17;;;18.87;;
7306;SDS011;3694;48.732;9.248;2023-03-01T04:07:39;23.00;;;19.27;;
7306;SDS011;3694;48.732;9.248;2023-03-01T04:10:06;22.27;;;16.37;;
7306;SDS011;3694;48.732;9.248;2023-03-01T04:12:35;23.67;;;18.57;;
7306;SDS011;3694;48.732;9.248;2023-03-01T04:15:01;22.50;;;16.70;;
7306;SDS011;3694;48.732;9.248;2023-03-01T04:17:37;23.17;;;17.13;;
7306;SDS011;3694;48.732;9.248;2023-03-01T04:20:07;21.80;;;15.60;;
7306;SDS011;3694;48.732;9.248;2023-03-01T04:22:37;21.50;;;16.73;;
7306;SDS011;3694;48.732;9.248;2023-03-01T04:25:03;23.57;;;17.53;;
7306;SDS011;3694;48.732;9.248;2023-03-01T04:27:31;22.17;;;17.10;;
7306;SDS011;3694;48.732;9.248;2023-03-01T04:30:01;21.17;;;16.43;;
7306;SDS011;3694;48.732;9.248;2023-03-01T04:32:28;17.53;;;13.47;;
7306;SDS011;3694;48.732;9.248;2023-03-01T04:34:53;20.60;;;16.03;;
7306;SDS011;3694;48.732;9.248;2023-03-01T04:37:19;22.53;;;17.60;;
7306;SDS011;3694;48.732;9.248;2023-03-01T04:39:44;19.80;;;15.17;;
7306;SDS011;3694;48.732;9.248;2023-03-01T04:42:13;22.10;;;17.17;;
7306;SDS011;3694;48.732;9.248;2023-03-01T04:44:39;22.27;;;17.33;;
7306;SDS011;3694;48.732;9.248;2023-03-01T04:47:05;23.87;;;18.23;;
7306;SDS011;3694;48.732;9.248;2023-03-01T04:49:30;22.40;;;15.67;;
7306;SDS011;3694;48.732;9.248;2023-03-01T04:51:56;16.53;;;12.67;;
7306;SDS011;3694;48.732;9.248;2023-03-01T04:54:26;22.90;;;15.93;;
7306;SDS011;3694;48.732;9.248;2023-03-01T04:56:53;22.13;;;17.97;;
7306;SDS011;3694;48.732;9.248;2023-03-01T04:59:18;22.63;;;17.93;;
7306;SDS011;3694;48.732;9.248;2023-03-01T05:01:47;24.57;;;17.67;;
7306;SDS011;3694;48.732;9.248;2023-03-01T05:04:16;24.33;;;18.07;;
7306;SDS011;3694;48.732;9.248;2023-03-01T05:06:42;23.80;;;17.90;;
7306;SDS011;3694;48.732;9.248;2023-03-01T05:09:07;23.30;;;18.50;;
7306;SDS011;3694;48.732;9.248;2023-03-01T05:11:33;21.63;;;17.40;;
7306;SDS011;3694;48.732;9.248;2023-03-01T05:14:01;21.80;;;16.20;;
7306;SDS011;3694;48.732;9.248;2023-03-01T05:16:27;21.83;;;17.83;;
7306;SDS011;3694;48.732;9.248;2023-03-01T05:18:55;18.93;;;14.03;;
7306;SDS011;3694;48.732;9.248;2023-03-01T05:21:21;21.30;;;15.67;;
7306;SDS011;3694;48.732;9.248;2023-03-01T05:23:47;21.07;;;15.70;;
7306;SDS011;3694;48.732;9.248;2023-03-01T05:26:13;19.70;;;14.33;;
7306;SDS011;3694;48.732;9.248;2023-03-01T05:28:39;23.67;;;17.87;;
7306;SDS011;3694;48.732;9.248;2023-03-01T05:31:04;17.80;;;13.20;;
7306;SDS011;3694;48.732;9.248;2023-03-01T05:33:35;22.47;;;17.50;;
7306;SDS011;3694;48.732;9.248;2023-03-01T05:36:03;22.20;;;17.13;;
7306;SDS011;3694;48.732;9.248;2023-03-01T05:38:29;18.83;;;13.90;;
7306;SDS011;3694;48.732;9.248;2023-03-01T05:40:55;14.80;;;10.70;;
7306;SDS011;3694;48.732;9.248;2023-03-01T05:43:21;22.20;;;17.67;;
7306;SDS011;3694;48.732;9.248;2023-03-01T05:45:47;18.77;;;12.90;;
7306;SDS011;3694;48.732;9.248;2023-03-01T05:48:13;22.97;;;17.10;;
7306;SDS011;3694;48.732;9.248;2023-03-01T05:50:40;18.70;;;13.57;;
7306;SDS011;3694;48.732;9.248;2023-03-01T05:53:09;22.23;;;17.63;;
7306;SDS011;3694;48.732;9.248;2023-03-01T05:55:37;18.30;;;14.10;;
7306;SDS011;3694;48.732;9.248;2023-03-01T05:58:05;21.30;;;16.50;;
7306;SDS011;3694;48.732;9.248;2023-03-01T06:00:33;22.87;;;18.07;;
7306;SDS011;3694;48.732;9.248;2023-03-01T06:02:59;20.57;;;14.77;;
7306;SDS011;3694;48.732;9.248;2023-03-01T06:05:25;21.27;;;12.33;;
7306;SDS011;3694;48.732;9.248;2023-03-01T06:07:51;20.43;;;14.97;;
7306;SDS011;3694;48.732;9.248;2023-03-01T06:10:18;17.33;;;12.17;;
7306;SDS011;3694;48.732;9.248;2023-03-01T06:12:45;24.67;;;17.40;;
7306;SDS011;3694;48.732;9.248;2023-03-01T06:15:12;23.13;;;17.10;;
7306;SDS011;3694;48.732;9.248;2023-03-01T06:17:39;23.73;;;16.07;;
7306;SDS011;3694;48.732;9.248;2023-03-01T06:20:07;21.40;;;17.20;;
7306;SDS011;3694;48.732;9.248;2023-03-01T06:22:36;23.90;;;17.17;;
7306;SDS011;3694;48.732;9.248;2023-03-01T06:25:01;26.17;;;19.10;;
7306;SDS011;3694;48.732;9.248;2023-03-01T06:27:27;21.27;;;16.63;;
7306;SDS011;3694;48.732;9.248;2023-03-01T06:29:53;21.53;;;16.53;;
7306;SDS011;3694;48.732;9.248;2023-03-01T06:32:18;21.17;;;17.00;;
7306;SDS011;3694;48.732;9.248;2023-03-01T06:34:44;20.73;;;15.37;;
7306;SDS011;3694;48.732;9.248;2023-03-01T06:37:10;23.13;;;17.27;;
7306;SDS011;3694;48.732;9.248;2023-03-01T06:39:35;21.40;;;17.23;;
7306;SDS011;3694;48.732;9.248;2023-03-01T06:42:01;20.07;;;16.40;;
7306;SDS011;3694;48.732;9.248;2023-03-01T06:44:27;21.67;;;17.33;;
7306;SDS011;3694;48.732;9.248;2023-03-01T06:46:52;22.03;;;16.03;;
7306;SDS011;3694;48.732;9.248;2023-03-01T06:49:18;23.17;;;17.47;;
7306;SDS011;3694;48.732;9.248;2023-03-01T06:51:44;23.07;;;16.00;;
7306;SDS011;3694;48.732;9.248;2023-03-01T06:54:11;21.73;;;16.40;;
7306;SDS011;3694;48.732;9.248;2023-03-01T06:56:37;21.10;;;16.97;;
7306;SDS011;3694;48.732;9.248;2023-03-01T06:59:03;21.53;;;15.87;;
7306;SDS011;3694;48.732;9.248;2023-03-01T07:01:29;24.50;;;18.07;;
7306;SDS011;3694;48.732;9.248;2023-03-01T07:03:55;25.90;;;19.27;;
7306;SDS011;3694;48.732;9.248;2023-03-01T07:06:23;23.57;;;16.57;;
7306;SDS011;3694;48.732;9.248;2023-03-01T07:08:52;24.37;;;16.63;;
7306;SDS011;3694;48.732;9.248;2023-03-01T07:11:17;25.90;;;19.50;;
7306;SDS011;3694;48.732;9.248;2023-03-01T07:13:43;30.87;;;20.03;;
7306;SDS011;3694;48.732;9.248;2023-03-01T07:16:08;24.07;;;18.53;;
7306;SDS011;3694;48.732;9.248;2023-03-01T07:18:34;22.40;;;18.17;;
7306;SDS011;3694;48.732;9.248;2023-03-01T07:21:09;23.70;;;17.97;;
7306;SDS011;3694;48.732;9.248;2023-03-01T07:23:37;23.23;;;17.30;;
7306;SDS011;3694;48.732;9.248;2023-03-01T07:26:03;23.97;;;17.67;;
7306;SDS011;3694;48.732;9.248;2023-03-01T07:28:28;20.93;;;16.10;;
7306;SDS011;3694;48.732;9.248;2023-03-01T07:30:55;22.43;;;16.63;;
7306;SDS011;3694;48.732;9.248;2023-03-01T07:33:26;26.67;;;15.97;;
7306;SDS011;3694;48.732;9.248;2023-03-01T07:35:55;21.80;;;15.57;;
7306;SDS011;3694;48.732;9.248;2023-03-01T07:38:25;23.33;;;17.80;;
7306;SDS011;3694;48.732;9.248;2023-03-01T07:40:51;20.07;;;14.80;;
7306;SDS011;3694;48.732;9.248;2023-03-01T07:43:17;21.90;;;15.33;;
7306;SDS011;3694;48.732;9.248;2023-03-01T07:45:43;19.43;;;14.03;;
7306;SDS011;3694;48.732;9.248;2023-03-01T07:48:08;20.00;;;15.50;;
7306;SDS011;3694;48.732;9.248;2023-03-01T07:50:34;21.67;;;16.30;;
7306;SDS011;3694;48.732;9.248;2023-03-01T07:53:00;19.73;;;15.07;;
7306;SDS011;3694;48.732;9.248;2023-03-01T07:55:25;21.57;;;16.60;;
7306;SDS011;3694;48.732;9.248;2023-03-01T07:57:51;18.47;;;15.63;;
7306;SDS011;3694;48.732;9.248;2023-03-01T08:00:16;19.70;;;14.07;;
7306;SDS011;3694;48.732;9.248;2023-03-01T08:02:42;23.97;;;17.23;;
7306;SDS011;3694;48.732;9.248;2023-03-01T08:05:08;20.37;;;14.27;;
7306;SDS011;3694;48.732;9.248;2023-03-01T08:07:35;21.80;;;15.73;;
7306;SDS011;3694;48.732;9.248;2023-03-01T08:10:00;22.97;;;17.00;;
7306;SDS011;3694;48.732;9.248;2023-03-01T08:12:26;20.33;;;14.47;;
7306;SDS011;3694;48.732;9.248;2023-03-01T08:14:53;20.07;;;14.90;;
7306;SDS011;3694;48.732;9.248;2023-03-01T08:17:18;18.20;;;14.07;;
7306;SDS011;3694;48.732;9.248;2023-03-01T08:19:44;24.23;;;17.10;;
7306;SDS011;3694;48.732;9.248;2023-03-01T08:22:10;16.60;;;13.57;;
7306;SDS011;3694;48.732;9.248;2023-03-01T08:24:35;19.73;;;16.30;;
7306;SDS011;3694;48.732;9.248;2023-03-01T08:27:01;18.13;;;14.20;;
7306;SDS011;3694;48.732;9.248;2023-03-01T08:29:27;22.57;;;14.60;;
7306;SDS011;3694;48.732;9.248;2023-03-01T08:31:55;20.13;;;15.73;;
7306;SDS011;3694;48.732;9.248;2023-03-01T08:34:21;22.73;;;16.07;;
7306;SDS011;3694;48.732;9.248;2023-03-01T08:36:47;19.67;;;15.87;;
7306;SDS011;3694;48.732;9.248;2023-03-01T08:39:14;20.17;;;13.37;;
7306;SDS011;3694;48.732;9.248;2023-03-01T08:41:41;20.53;;;15.53;;
7306;SDS011;3694;48.732;9.248;2023-03-01T08:44:07;22.00;;;17.23;;
7306;SDS011;3694;48.732;9.248;2023-03-01T08:46:38;17.17;;;11.47;;
7306;SDS011;3694;48.732;9.248;2023-03-01T08:49:15;20.77;;;16.07;;
7306;SDS011;3694;48.732;9.248;2023-03-01T08:51:42;16.57;;;13.37;;
7306;SDS011;3694;48.732;9.248;2023-03-01T08:54:12;18.43;;;11.23;;
7306;SDS011;3694;48.732;9.248;2023-03-01T08:56:40;19.53;;;16.47;;
7306;SDS011;3694;48.732;9.248;2023-03-01T08:59:06;19.57;;;16.30;;
7306;SDS011;3694;48.732;9.248;2023-03-01T09:01:32;19.73;;;14.77;;
7306;SDS011;3694;48.732;9.248;2023-03-01T09:03:57;23.93;;;17.50;;
7306;SDS011;3694;48.732;9.248;2023-03-01T09:06:23;22.77;;;16.03;;
7306;SDS011;3694;48.732;9.248;2023-03-01T09:08:49;20.87;;;16.60;;
7306;SDS011;3694;48.732;9.248;2023-03-01T09:11:16;20.90;;;16.87;;
7306;SDS011;3694;48.732;9.248;2023-03-01T09:13:44;21.97;;;14.33;;
7306;SDS011;3694;48.732;9.248;2023-03-01T09:16:12;19.67;;;15.17;;
7306;SDS011;3694;48.732;9.248;2023-03-01T09:18:39;19.80;;;16.20;;
7306;SDS011;3694;48.732;9.248;2023-03-01T09:21:06;19.87;;;16.50;;
7306;SDS011;3694;48.732;9.248;2023-03-01T09:23:35;19.40;;;16.53;;
7306;SDS011;3694;48.732;9.248;2023-03-01T09:26:01;18.53;;;14.13;;
7306;SDS011;3694;48.732;9.248;2023-03-01T09:28:28;19.67;;;15.40;;
7306;SDS011;3694;48.732;9.248;2023-03-01T09:30:53;20.57;;;16.47;;
7306;SDS011;3694;48.732;9.248;2023-03-01T09:33:22;18.40;;;14.33;;
7306;SDS011;3694;48.732;9.248;2023-03-01T09:35:47;18.00;;;13.33;;
7306;SDS011;3694;48.732;9.248;2023-03-01T09:38:13;21.90;;;16.37;;
7306;SDS011;3694;48.732;9.248;2023-03-01T09:40:42;17.93;;;14.07;;
7306;SDS011;3694;48.732;9.248;2023-03-01T09:43:27;16.37;;;12.83;;
7306;SDS011;3694;48.732;9.248;2023-03-01T09:45:56;20.23;;;15.53;;
7306;SDS011;3694;48.732;9.248;2023-03-01T09:48:37;18.37;;;14.50;;
7306;SDS011;3694;48.732;9.248;2023-03-01T09:51:08;16.23;;;12.93;;
7306;SDS011;3694;48.732;9.248;2023-03-01T09:53:41;19.77;;;15.73;;
7306;SDS011;3694;48.732;9.248;2023-03-01T09:56:17;19.67;;;16.03;;
7306;SDS011;3694;48.732;9.248;2023-03-01T10:01:30;21.27;;;16.17;;
7306;SDS011;3694;48.732;9.248;2023-03-01T10:06:56;22.13;;;17.07;;
7306;SDS011;3694;48.732;9.248;2023-03-01T10:09:32;20.63;;;15.00;;
7306;SDS011;3694;48.732;9.248;2023-03-01T10:11:59;20.47;;;16.80;;
7306;SDS011;3694;48.732;9.248;2023-03-01T10:14:29;20.97;;;16.73;;
7306;SDS011;3694;48.732;9.248;2023-03-01T10:20:08;18.63;;;16.07;;
7306;SDS011;3694;48.732;9.248;2023-03-01T10:22:38;22.27;;;15.80;;
7306;SDS011;3694;48.732;9.248;2023-03-01T10:25:04;20.37;;;17.37;;
7306;SDS011;3694;48.732;9.248;2023-03-01T10:32:47;19.67;;;16.33;;
7306;SDS011;3694;48.732;9.248;2023-03-01T10:35:17;21.93;;;16.40;;
7306;SDS011;3694;48.732;9.248;2023-03-01T10:38:04;17.07;;;14.17;;
7306;SDS011;3694;48.732;9.248;2023-03-01T10:40:32;19.13;;;15.30;;
7306;SDS011;3694;48.732;9.248;2023-03-01T10:43:00;18.87;;;13.43;;
7306;SDS011;3694;48.732;9.248;2023-03-01T10:48:03;20.00;;;16.43;;
7306;SDS011;3694;48.732;9.248;2023-03-01T10:51:05;22.13;;;16.53;;
7306;SDS011;3694;48.732;9.248;2023-03-01T10:53:33;20.43;;;16.10;;
7306;SDS011;3694;48.732;9.248;2023-03-01T10:56:13;19.67;;;15.50;;
7306;SDS011;3694;48.732;9.248;2023-03-01T10:58:41;19.57;;;15.53;;
7306;SDS011;3694;48.732;9.248;2023-03-01T11:01:32;19.73;;;16.70;;
7306;SDS011;3694;48.732;9.248;2023-03-01T11:04:17;17.37;;;15.00;;
7306;SDS011;3694;48.732;9.248;2023-03-01T11:06:43;19.47;;;16.33;;
7306;SDS011;3694;48.732;9.248;2023-03-01T11:09:22;18.97;;;15.47;;
7306;SDS011;3694;48.732;9.248;2023-03-01T11:11:59;25.20;;;16.67;;
7306;SDS011;3694;48.732;9.248;2023-03-01T11:14:35;18.50;;;15.07;;
7306;SDS011;3694;48.732;9.248;2023-03-01T11:17:11;17.90;;;13.57;;
7306;SDS011;3694;48.732;9.248;2023-03-01T11:19:40;18.67;;;15.80;;
7306;SDS011;3694;48.732;9.248;2023-03-01T11:22:13;19.03;;;15.47;;
7306;SDS011;3694;48.732;9.248;2023-03-01T11:24:48;16.40;;;13.20;;
7306;SDS011;3694;48.732;9.248;2023-03-01T11:27:20;20.70;;;15.07;;
7306;SDS011;3694;48.732;9.248;2023-03-01T11:29:54;20.13;;;14.90;;
7306;SDS011;3694;48.732;9.248;2023-03-01T11:32:23;16.70;;;14.03;;
7306;SDS011;3694;48.732;9.248;2023-03-01T11:34:54;16.93;;;13.53;;
7306;SDS011;3694;48.732;9.248;2023-03-01T11:40:20;17.70;;;15.37;;
7306;SDS011;3694;48.732;9.248;2023-03-01T11:43:19;14.53;;;12.97;;
7306;SDS011;3694;48.732;9.248;2023-03-01T11:46:38;18.27;;;15.13;;
7306;SDS011;3694;48.732;9.248;2023-03-01T12:11:06;18.27;;;15.80;;
7306;SDS011;3694;48.732;9.248;2023-03-01T12:14:05;16.97;;;14.23;;
7306;SDS011;3694;48.732;9.248;2023-03-01T12:17:24;13.07;;;11.43;;
7306;SDS011;3694;48.732;9.248;2023-03-01T12:25:51;16.87;;;13.20;;
7306;SDS011;3694;48.732;9.248;2023-03-01T12:37:01;13.93;;;11.73;;
7306;SDS011;3694;48.732;9.248;2023-03-01T12:45:35;16.17;;;14.07;;
7306;SDS011;3694;48.732;9.248;2023-03-01T12:50:49;16.60;;;14.10;;
7306;SDS011;3694;48.732;9.248;2023-03-01T12:53:28;16.13;;;13.67;;
7306;SDS011;3694;48.732;9.248;2023-03-01T12:56:00;16.93;;;13.93;;
7306;SDS011;3694;48.732;9.248;2023-03-01T12:58:32;16.57;;;14.27;;
7306;SDS011;3694;48.732;9.248;2023-03-01T13:01:10;17.30;;;13.53;;
7306;SDS011;3694;48.732;9.248;2023-03-01T13:06:18;15.83;;;14.13;;
7306;SDS011;3694;48.732;9.248;2023-03-01T13:09:09;16.83;;;11.90;;
7306;SDS011;3694;48.732;9.248;2023-03-01T13:11:57;14.60;;;11.90;;
7306;SDS011;3694;48.732;9.248;2023-03-01T13:16:48;16.43;;;13.23;;
7306;SDS011;3694;48.732;9.248;2023-03-01T13:19:36;14.43;;;11.80;;
7306;SDS011;3694;48.732;9.248;2023-03-01T13:22:01;16.63;;;13.50;;
7306;SDS011;3694;48.732;9.248;2023-03-01T13:24:54;16.20;;;13.07;;
7306;SDS011;3694;48.732;9.248;2023-03-01T13:30:58;15.17;;;13.57;;
7306;SDS011;3694;48.732;9.248;2023-03-01T13:42:25;14.87;;;12.90;;
7306;SDS011;3694;48.732;9.248;2023-03-01T13:47:19;12.97;;;11.63;;
7306;SDS011;3694;48.732;9.248;2023-03-01T13:49:57;14.67;;;10.53;;
7306;SDS011;3694;48.732;9.248;2023-03-01T13:55:05;14.27;;;12.70;;
7306;SDS011;3694;48.732;9.248;2023-03-01T13:57:58;12.83;;;10.70;;
7306;SDS011;3694;48.732;9.248;2023-03-01T14:00:36;14.23;;;11.93;;
7306;SDS011;3694;48.732;9.248;2023-03-01T14:05:36;13.60;;;11.73;;
7306;SDS011;3694;48.732;9.248;2023-03-01T14:08:03;15.03;;;12.77;;
7306;SDS011;3694;48.732;9.248;2023-03-01T14:13:48;16.27;;;12.17;;
7306;SDS011;3694;48.732;9.248;2023-03-01T14:21:42;19.73;;;15.67;;
7306;SDS011;3694;48.732;9.248;2023-03-01T14:24:16;16.27;;;12.73;;
7306;SDS011;3694;48.732;9.248;2023-03-01T14:26:44;18.50;;;13.90;;
7306;SDS011;3694;48.732;9.248;2023-03-01T14:29:23;19.80;;;13.77;;
7306;SDS011;3694;48.732;9.248;2023-03-01T14:32:07;19.40;;;15.20;;
7306;SDS011;3694;48.732;9.248;2023-03-01T14:34:34;19.67;;;14.63;;
7306;SDS011;3694;48.732;9.248;2023-03-01T14:37:10;13.87;;;10.20;;
7306;SDS011;3694;48.732;9.248;2023-03-01T14:39:47;16.63;;;12.17;;
7306;SDS011;3694;48.732;9.248;2023-03-01T14:42:13;16.70;;;12.87;;
7306;SDS011;3694;48.732;9.248;2023-03-01T14:44:40;15.17;;;13.27;;
7306;SDS011;3694;48.732;9.248;2023-03-01T14:47:15;15.97;;;12.40;;
7306;SDS011;3694;48.732;9.248;2023-03-01T14:49:57;16.37;;;14.47;;
7306;SDS011;3694;48.732;9.248;2023-03-01T14:52:29;17.40;;;11.33;;
7306;SDS011;3694;48.732;9.248;2023-03-01T14:55:00;16.07;;;13.97;;
7306;SDS011;3694;48.732;9.248;2023-03-01T14:57:30;16.50;;;13.77;;
7306;SDS011;3694;48.732;9.248;2023-03-01T14:59:57;16.20;;;11.50;;
7306;SDS011;3694;48.732;9.248;2023-03-01T15:02:25;15.60;;;12.00;;
7306;SDS011;3694;48.732;9.248;2023-03-01T15:04:57;16.57;;;13.70;;
7306;SDS011;3694;48.732;9.248;2023-03-01T15:07:33;17.40;;;14.00;;
7306;SDS011;3694;48.732;9.248;2023-03-01T15:10:02;17.83;;;13.87;;
7306;SDS011;3694;48.732;9.248;2023-03-01T15:15:18;17.00;;;13.67;;
7306;SDS011;3694;48.732;9.248;2023-03-01T15:17:52;12.37;;;10.53;;
7306;SDS011;3694;48.732;9.248;2023-03-01T15:20:20;14.43;;;12.93;;
7306;SDS011;3694;48.732;9.248;2023-03-01T15:22:50;11.37;;;8.83;;
7306;SDS011;3694;48.732;9.248;2023-03-01T15:25:18;12.00;;;10.33;;
7306;SDS011;3694;48.732;9.248;2023-03-01T15:27:46;16.03;;;13.47;;
7306;SDS011;3694;48.732;9.248;2023-03-01T15:30:13;15.87;;;13.30;;
7306;SDS011;3694;48.732;9.248;2023-03-01T15:32:45;15.17;;;12.60;;
7306;SDS011;3694;48.732;9.248;2023-03-01T15:38:24;14.93;;;12.63;;
7306;SDS011;3694;48.732;9.248;2023-03-01T15:40:54;15.97;;;13.60;;
7306;SDS011;3694;48.732;9.248;2023-03-01T15:46:25;17.20;;;13.60;;
7306;SDS011;3694;48.732;9.248;2023-03-01T15:49:02;15.20;;;13.17;;
7306;SDS011;3694;48.732;9.248;2023-03-01T15:51:35;16.50;;;13.07;;
7306;SDS011;3694;48.732;9.248;2023-03-01T15:54:04;19.40;;;15.03;;
7306;SDS011;3694;48.732;9.248;2023-03-01T15:56:43;13.67;;;10.70;;
7306;SDS011;3694;48.732;9.248;2023-03-01T15:59:09;18.50;;;13.17;;
7306;SDS011;3694;48.732;9.248;2023-03-01T16:01:40;15.60;;;13.03;;
7306;SDS011;3694;48.732;9.248;2023-03-01T16:04:06;15.77;;;11.17;;
7306;SDS011;3694;48.732;9.248;2023-03-01T16:06:31;16.40;;;12.27;;
7306;SDS011;3694;48.732;9.248;2023-03-01T16:08:57;19.03;;;14.73;;
7306;SDS011;3694;48.732;9.248;2023-03-01T16:11:23;17.73;;;13.77;;
7306;SDS011;3694;48.732;9.248;2023-03-01T16:13:48;16.03;;;12.37;;
7306;SDS011;3694;48.732;9.248;2023-03-01T16:16:15;17.03;;;11.93;;
7306;SDS011;3694;48.732;9.248;2023-03-01T16:18:42;16.47;;;13.53;;
7306;SDS011;3694;48.732;9.248;2023-03-01T16:21:12;14.97;;;11.03;;
7306;SDS011;3694;48.732;9.248;2023-03-01T16:23:58;16.80;;;13.53;;
7306;SDS011;3694;48.732;9.248;2023-03-01T16:26:23;19.93;;;14.67;;
7306;SDS011;3694;48.732;9.248;2023-03-01T16:28:49;21.03;;;15.90;;
7306;SDS011;3694;48.732;9.248;2023-03-01T16:31:18;16.53;;;12.83;;
7306;SDS011;3694;48.732;9.248;2023-03-01T16:33:44;23.03;;;14.27;;
7306;SDS011;3694;48.732;9.248;2023-03-01T16:36:14;18.03;;;14.03;;
7306;SDS011;3694;48.732;9.248;2023-03-01T16:38:41;19.40;;;14.97;;
7306;SDS011;3694;48.732;9.248;2023-03-01T16:41:14;18.13;;;13.57;;
7306;SDS011;3694;48.732;9.248;2023-03-01T16:43:41;17.87;;;15.17;;
7306;SDS011;3694;48.732;9.248;2023-03-01T16:46:14;17.00;;;13.57;;
7306;SDS011;3694;48.732;9.248;2023-03-01T16:49:00;16.70;;;13.97;;
7306;SDS011;3694;48.732;9.248;2023-03-01T16:51:26;18.93;;;15.50;;
7306;SDS011;3694;48.732;9.248;2023-03-01T16:53:52;19.47;;;15.37;;